Time;durP1;ratioP1;P1;durP2;ratioP2;P2;SDS_P1;SDS_P2;PMS_P1;PMS_P2;Temp;Humidity;BMP_temperature;BMP_pressure;BME280_temperature;BME280_humidity;BME280_pressure;Samples;Min_cycle;Max_cycle;Signal;HPM_P1;HPM_P2
2021/06/27 00:00:32;;;;;;;24.15;15.32;;;;;;;14.80;75.26;100853.99;1666249;86;21083;-70
2021/06/27 00:03:00;;;;;;;19.27;13.00;;;;;;;14.81;75.29;100852.98;1666475;86;21084;-70
2021/06/27 00:05:27;;;;;;;18.12;12.55;;;;;;;14.75;75.32;100846.48;1666379;85;21076;-70
2021/06/27 00:07:54;;;;;;;28.05;12.10;;;;;;;14.70;75.34;100846.23;1676290;84;21135;-70
2021/06/27 00:10:29;;;;;;;18.57;12.13;;;;;;;14.67;75.38;100845.23;1686687;84;21502;-71
2021/06/27 00:12:55;;;;;;;19.70;11.88;;;;;;;14.65;75.41;100842.42;1678614;84;21553;-71
2021/06/27 00:15:28;;;;;;;19.65;11.75;;;;;;;14.63;75.50;100839.94;1693640;84;21471;-70
2021/06/27 00:17:54;;;;;;;17.45;11.48;;;;;;;14.58;75.57;100837.46;1682116;84;21047;-70
2021/06/27 00:20:26;;;;;;;20.35;12.25;;;;;;;14.58;75.61;100844.17;1679215;85;21059;-71
2021/06/27 00:22:52;;;;;;;15.32;10.85;;;;;;;14.58;75.70;100846.86;1691334;84;21018;-70
2021/06/27 00:25:19;;;;;;;12.85;10.53;;;;;;;14.42;75.72;100831.78;1693686;84;20991;-70
2021/06/27 00:27:47;;;;;;;19.02;11.08;;;;;;;14.42;75.79;100846.04;1693629;84;21527;-70
2021/06/27 00:30:14;;;;;;;16.30;10.75;;;;;;;14.39;75.84;100847.72;1693686;84;21069;-70
2021/06/27 00:32:40;;;;;;;17.95;10.28;;;;;;;14.33;75.90;100851.62;1693557;84;21804;-70
2021/06/27 00:35:08;;;;;;;13.15;9.30;;;;;;;14.27;75.92;100849.17;1693436;84;21006;-70
2021/06/27 00:37:34;;;;;;;12.68;9.43;;;;;;;14.21;75.94;100851.75;1693794;84;21113;-70
2021/06/27 00:40:00;;;;;;;13.90;9.08;;;;;;;14.20;75.96;100849.58;1689162;84;21065;-70
2021/06/27 00:42:26;;;;;;;19.32;9.00;;;;;;;14.19;76.03;100849.74;1684753;84;21419;-70
2021/06/27 00:44:52;;;;;;;14.38;9.55;;;;;;;14.19;76.06;100851.92;1693380;84;21586;-70
2021/06/27 00:47:31;;;;;;;18.02;11.85;;;;;;;14.19;76.08;100853.27;1693584;84;21077;-70
2021/06/27 00:49:57;;;;;;;16.05;12.33;;;;;;;14.22;76.10;100852.89;1691354;84;21020;-70
2021/06/27 00:52:24;;;;;;;16.80;13.00;;;;;;;14.18;76.11;100847.56;1691375;84;21024;-70
2021/06/27 00:54:50;;;;;;;16.85;11.35;;;;;;;14.13;76.14;100851.32;1691717;84;21071;-70
2021/06/27 00:57:16;;;;;;;16.87;11.63;;;;;;;14.10;76.17;100854.37;1691251;84;21130;-70
2021/06/27 00:59:42;;;;;;;19.00;13.03;;;;;;;14.08;76.20;100849.67;1693512;84;21015;-70
2021/06/27 01:02:08;;;;;;;26.50;15.53;;;;;;;14.03;76.25;100846.72;1693866;84;21537;-70
2021/06/27 01:04:36;;;;;;;15.00;10.48;;;;;;;14.01;76.23;100843.37;1682963;84;21088;-70
2021/06/27 01:07:03;;;;;;;14.30;11.05;;;;;;;13.95;76.26;100838.23;1679231;84;21070;-70
2021/06/27 01:09:29;;;;;;;14.03;10.45;;;;;;;13.92;76.29;100841.78;1662342;85;21164;-70
2021/06/27 01:11:57;;;;;;;17.60;10.55;;;;;;;13.89;76.36;100841.65;1639523;87;21024;-70
2021/06/27 01:14:23;;;;;;;13.10;10.50;;;;;;;13.87;76.40;100840.97;1639298;87;21456;-70
2021/06/27 01:16:49;;;;;;;16.40;11.38;;;;;;;13.86;76.46;100841.17;1639508;87;21378;-70
2021/06/27 01:19:15;;;;;;;17.98;11.05;;;;;;;13.84;76.50;100835.14;1639228;87;21068;-70
2021/06/27 01:21:42;;;;;;;16.05;11.75;;;;;;;13.80;76.50;100836.51;1653374;85;21135;-70
2021/06/27 01:24:09;;;;;;;14.83;11.25;;;;;;;13.79;76.57;100834.87;1666943;86;21024;-70
2021/06/27 01:26:35;;;;;;;17.35;11.80;;;;;;;13.77;76.57;100840.39;1667038;86;21084;-70
2021/06/27 01:29:01;;;;;;;21.23;11.95;;;;;;;13.71;76.60;100840.28;1666929;86;21017;-70
2021/06/27 01:31:27;;;;;;;17.05;11.33;;;;;;;13.65;76.63;100838.33;1678553;85;21066;-70
2021/06/27 01:33:54;;;;;;;14.80;10.88;;;;;;;13.61;76.64;100837.02;1683941;85;21483;-70
2021/06/27 01:36:23;;;;;;;14.75;10.58;;;;;;;13.61;76.70;100841.03;1682367;85;21104;-70
2021/06/27 01:38:50;;;;;;;16.93;11.93;;;;;;;13.58;76.75;100835.50;1683444;85;21085;-70
2021/06/27 01:41:17;;;;;;;19.40;13.58;;;;;;;13.55;76.75;100837.70;1672865;85;21063;-70
2021/06/27 01:43:44;;;;;;;31.90;18.73;;;;;;;13.49;76.84;100836.08;1671902;85;21522;-70
2021/06/27 01:46:10;;;;;;;20.27;12.73;;;;;;;13.53;76.89;100830.36;1672121;85;21143;-70
2021/06/27 01:48:36;;;;;;;18.92;13.68;;;;;;;13.48;76.89;100826.87;1672026;85;21005;-70
2021/06/27 01:51:06;;;;;;;19.82;14.30;;;;;;;13.39;76.93;100827.45;1672114;85;21057;-70
2021/06/27 01:53:33;;;;;;;25.40;15.40;;;;;;;13.37;77.00;100825.43;1675647;85;21007;-70
2021/06/27 01:56:06;;;;;;;25.57;16.10;;;;;;;13.37;77.01;100829.45;1683885;85;21070;-70
2021/06/27 01:58:47;;;;;;;22.62;14.18;;;;;;;13.35;77.02;100835.50;1683588;85;21796;-70
2021/06/27 02:01:25;;;;;;;17.80;12.60;;;;;;;13.28;77.06;100831.86;1683492;85;21333;-70
2021/06/27 02:03:51;;;;;;;16.15;12.37;;;;;;;13.22;77.08;100829.90;1678092;85;21619;-70
2021/06/27 02:06:19;;;;;;;13.40;11.33;;;;;;;13.24;77.12;100831.88;1666888;86;21044;-70
2021/06/27 02:08:45;;;;;;;18.35;11.12;;;;;;;13.24;77.14;100838.58;1673292;85;21032;-70
2021/06/27 02:11:12;;;;;;;16.23;12.78;;;;;;;13.21;77.19;100836.26;1690694;84;21208;-70
2021/06/27 02:13:39;;;;;;;17.73;11.68;;;;;;;13.16;77.25;100835.13;1691426;84;20997;-70
2021/06/27 02:16:06;;;;;;;16.05;11.88;;;;;;;13.12;77.32;100833.31;1691413;84;21394;-70
2021/06/27 02:18:38;;;;;;;17.15;13.43;;;;;;;13.10;77.38;100832.63;1691468;84;21509;-70
2021/06/27 02:21:13;;;;;;;20.52;13.95;;;;;;;13.06;77.46;100832.62;1692167;84;21062;-70
2021/06/27 02:23:39;;;;;;;18.12;14.20;;;;;;;13.05;77.50;100826.12;1693505;84;21166;-70
2021/06/27 02:26:06;;;;;;;21.17;13.62;;;;;;;12.98;77.52;100828.66;1693602;84;21002;-70
2021/06/27 02:28:32;;;;;;;20.08;14.03;;;;;;;12.94;77.56;100824.16;1693719;84;21018;-70
2021/06/27 02:30:59;;;;;;;14.95;12.63;;;;;;;12.93;77.59;100827.84;1693691;84;20999;-70
2021/06/27 02:33:26;;;;;;;22.50;13.48;;;;;;;12.88;77.57;100825.34;1688774;84;21059;-70
2021/06/27 02:35:52;;;;;;;18.35;12.43;;;;;;;12.85;77.63;100819.00;1679323;85;21485;-70
2021/06/27 02:38:18;;;;;;;16.27;12.47;;;;;;;12.88;77.67;100822.66;1691433;84;21420;-70
2021/06/27 02:40:44;;;;;;;20.20;12.88;;;;;;;12.90;77.71;100820.66;1682783;84;21029;-70
2021/06/27 02:43:11;;;;;;;22.02;14.87;;;;;;;12.93;77.78;100824.33;1679428;84;21107;-70
2021/06/27 02:45:38;;;;;;;19.42;15.30;;;;;;;12.95;77.82;100824.47;1678634;85;21593;-71
2021/06/27 02:48:06;;;;;;;24.82;15.30;;;;;;;12.94;77.87;100823.33;1689740;84;21146;-70
2021/06/27 02:50:32;;;;;;;23.65;16.80;;;;;;;12.92;77.90;100822.65;1693748;84;21471;-70
2021/06/27 02:52:58;;;;;;;19.57;16.02;;;;;;;12.90;77.94;100823.34;1693609;84;21487;-70
2021/06/27 02:55:24;;;;;;;20.02;14.90;;;;;;;12.90;77.97;100819.33;1693774;84;21010;-70
2021/06/27 02:57:53;;;;;;;18.67;14.38;;;;;;;12.89;77.97;100816.31;1693860;84;21006;-70
2021/06/27 03:00:21;;;;;;;17.80;13.62;;;;;;;12.87;77.99;100817.84;1694016;84;21169;-70
2021/06/27 03:02:47;;;;;;;19.48;13.90;;;;;;;12.90;78.04;100823.34;1693258;84;21512;-70
2021/06/27 03:05:14;;;;;;;24.80;14.03;;;;;;;12.93;78.07;100819.81;1693653;84;21081;-70
2021/06/27 03:07:41;;;;;;;26.77;14.20;;;;;;;12.94;78.11;100819.31;1693617;84;21025;-70
2021/06/27 03:10:11;;;;;;;17.35;13.48;;;;;;;12.98;78.17;100817.42;1679313;84;21026;-70
2021/06/27 03:12:39;;;;;;;22.05;14.58;;;;;;;13.07;78.18;100818.23;1664861;86;21519;-70
2021/06/27 03:15:07;;;;;;;19.27;14.43;;;;;;;13.09;78.20;100817.56;1664217;86;21483;-70
2021/06/27 03:17:33;;;;;;;20.72;16.57;;;;;;;13.07;78.24;100813.37;1664992;86;21113;-70
2021/06/27 03:19:59;;;;;;;22.30;16.17;;;;;;;13.16;78.29;100816.39;1664438;86;21014;-70
2021/06/27 03:22:25;;;;;;;22.82;17.60;;;;;;;13.19;78.28;100812.85;1664481;86;21109;-70
2021/06/27 03:24:51;;;;;;;20.97;17.57;;;;;;;13.23;78.34;100811.45;1664604;86;21164;-70
2021/06/27 03:27:19;;;;;;;23.12;17.77;;;;;;;13.36;78.48;100809.05;1664799;86;21011;-71
2021/06/27 03:29:44;;;;;;;21.57;16.27;;;;;;;13.73;78.63;100801.55;1664564;86;21066;-71
2021/06/27 03:32:10;;;;;;;25.30;15.20;;;;;;;14.64;78.89;100808.53;1664740;86;21030;-71
2021/06/27 03:34:36;;;;;;;19.02;12.73;;;;;;;15.73;78.70;100816.41;1688384;84;20991;-71
2021/06/27 03:37:03;;;;;;;18.73;13.65;;;;;;;16.67;78.27;100806.99;1693335;84;21802;-71
2021/06/27 03:39:30;;;;;;;18.55;13.22;;;;;;;17.42;77.78;100803.62;1686009;84;21012;-71
2021/06/27 03:41:56;;;;;;;20.23;13.95;;;;;;;17.98;77.44;100799.23;1650445;86;21019;-71
2021/06/27 03:44:23;;;;;;;16.57;13.55;;;;;;;18.74;76.98;100802.25;1666190;85;21002;-71
2021/06/27 03:46:49;;;;;;;13.93;12.47;;;;;;;19.60;76.25;100807.53;1673729;85;21506;-71
2021/06/27 03:49:15;;;;;;;18.27;14.05;;;;;;;20.39;75.43;100803.67;1693837;84;21795;-71
2021/06/27 03:51:41;;;;;;;24.05;16.70;;;;;;;21.08;74.47;100801.59;1693727;84;21059;-71
2021/06/27 03:54:08;;;;;;;26.82;16.80;;;;;;;21.67;73.44;100799.45;1675993;85;21001;-71
2021/06/27 03:56:34;;;;;;;28.47;16.25;;;;;;;21.99;72.28;100804.88;1676276;85;21069;-71
2021/06/27 03:59:00;;;;;;;23.42;15.38;;;;;;;22.46;71.62;100804.36;1676164;85;21021;-72
2021/06/27 04:01:26;;;;;;;33.73;20.70;;;;;;;22.90;70.64;100802.91;1676250;85;21643;-71
2021/06/27 04:03:52;;;;;;;28.83;17.55;;;;;;;23.38;69.62;100806.03;1675835;85;21013;-71
2021/06/27 04:06:18;;;;;;;18.85;15.10;;;;;;;23.51;68.61;100806.28;1676122;85;21088;-71
2021/06/27 04:08:44;;;;;;;19.98;13.93;;;;;;;23.48;67.83;100813.59;1672512;85;21045;-71
2021/06/27 04:11:10;;;;;;;20.65;15.13;;;;;;;23.74;67.09;100805.34;1663414;86;21006;-71
2021/06/27 04:13:36;;;;;;;20.80;14.35;;;;;;;24.15;66.06;100813.13;1663821;86;21800;-72
2021/06/27 04:16:04;;;;;;;25.48;15.48;;;;;;;24.57;64.75;100820.83;1662491;86;21035;-71
2021/06/27 04:18:30;;;;;;;24.00;14.73;;;;;;;24.69;63.68;100816.09;1665659;86;21043;-71
2021/06/27 04:20:57;;;;;;;18.70;14.40;;;;;;;24.68;62.84;100822.62;1664058;86;21551;-71
2021/06/27 04:23:24;;;;;;;16.48;13.72;;;;;;;24.68;62.20;100811.71;1659948;86;21043;-71
2021/06/27 04:25:50;;;;;;;20.35;14.70;;;;;;;23.77;61.05;100815.73;1646995;87;21737;-71
2021/06/27 04:28:16;;;;;;;20.55;14.45;;;;;;;22.53;61.08;100819.19;1647168;86;21014;-71
2021/06/27 04:30:43;;;;;;;20.52;14.00;;;;;;;21.83;61.21;100821.84;1647233;87;21047;-71
2021/06/27 04:33:09;;;;;;;22.35;16.20;;;;;;;22.06;61.13;100821.09;1651971;86;21055;-71
2021/06/27 04:35:37;;;;;;;21.62;14.33;;;;;;;22.39;60.92;100816.72;1665944;86;21141;-71
2021/06/27 04:38:10;;;;;;;24.18;15.35;;;;;;;22.52;60.74;100817.55;1666040;86;21481;-71
2021/06/27 04:40:36;;;;;;;19.40;14.45;;;;;;;22.38;60.50;100820.49;1648390;86;21113;-72
2021/06/27 04:43:03;;;;;;;18.48;13.80;;;;;;;22.35;60.40;100818.25;1647278;87;21021;-71
2021/06/27 04:45:29;;;;;;;17.60;13.98;;;;;;;22.38;60.23;100819.66;1647376;87;21022;-71
2021/06/27 04:47:55;;;;;;;21.95;13.68;;;;;;;22.15;60.11;100825.11;1647561;87;21062;-71
2021/06/27 04:50:21;;;;;;;16.93;13.35;;;;;;;21.61;59.92;100827.50;1647719;86;22136;-70
2021/06/27 04:52:52;;;;;;;23.27;15.00;;;;;;;21.33;59.95;100826.75;1648204;86;21061;-71
2021/06/27 04:55:18;;;;;;;21.52;15.50;;;;;;;21.32;59.89;100824.56;1649966;86;21042;-71
2021/06/27 04:57:45;;;;;;;16.25;13.10;;;;;;;21.43;59.82;100826.50;1657252;86;21066;-71
2021/06/27 05:00:12;;;;;;;17.82;12.85;;;;;;;21.14;59.76;100825.16;1648675;86;21574;-71
2021/06/27 05:02:38;;;;;;;19.95;13.60;;;;;;;20.81;59.70;100830.94;1657622;86;21280;-71
2021/06/27 05:05:05;;;;;;;18.57;13.60;;;;;;;20.63;59.67;100833.64;1663947;86;21045;-71
2021/06/27 05:07:31;;;;;;;14.75;12.75;;;;;;;20.44;59.72;100833.61;1651925;86;21554;-71
2021/06/27 05:09:57;;;;;;;18.52;13.98;;;;;;;20.25;59.62;100834.62;1652187;86;21476;-71
2021/06/27 05:12:26;;;;;;;17.17;13.38;;;;;;;20.05;59.71;100835.84;1621090;88;21085;-71
2021/06/27 05:14:52;;;;;;;19.48;13.85;;;;;;;19.83;59.76;100828.62;1646974;86;21079;-71
2021/06/27 05:17:19;;;;;;;16.32;14.40;;;;;;;19.70;59.85;100830.08;1647480;86;21104;-71
2021/06/27 05:19:45;;;;;;;17.95;13.83;;;;;;;19.57;59.91;100832.84;1647556;87;21049;-71
2021/06/27 05:22:11;;;;;;;21.70;16.05;;;;;;;19.46;60.00;100831.66;1647692;87;21582;-71
2021/06/27 05:24:37;;;;;;;17.92;13.75;;;;;;;19.77;60.12;100836.27;1647427;87;21013;-71
2021/06/27 05:27:04;;;;;;;19.57;14.78;;;;;;;20.17;60.09;100832.18;1648635;86;21148;-71
2021/06/27 05:29:30;;;;;;;19.23;13.95;;;;;;;20.67;60.09;100829.43;1646919;87;21042;-71
2021/06/27 05:31:56;;;;;;;17.27;13.90;;;;;;;20.82;60.02;100822.59;1647125;87;21018;-71
2021/06/27 05:34:22;;;;;;;22.52;15.38;;;;;;;21.06;60.01;100823.55;1647333;86;21102;-71
2021/06/27 05:36:48;;;;;;;17.10;13.95;;;;;;;21.32;59.88;100825.92;1646717;87;21037;-71
2021/06/27 05:39:14;;;;;;;19.60;14.03;;;;;;;21.67;59.74;100825.23;1650981;86;21312;-71
2021/06/27 05:41:43;;;;;;;17.32;14.20;;;;;;;21.96;59.74;100824.36;1663388;86;20998;-72
2021/06/27 05:44:08;;;;;;;17.48;12.43;;;;;;;22.31;59.42;100826.58;1663695;86;21006;-71
2021/06/27 05:46:34;;;;;;;15.43;12.55;;;;;;;22.46;59.23;100829.36;1663836;86;20998;-71
2021/06/27 05:49:03;;;;;;;18.20;11.50;;;;;;;22.34;58.98;100830.73;1665932;86;21522;-71
2021/06/27 05:51:29;;;;;;;12.05;10.82;;;;;;;22.62;58.88;100833.56;1665757;86;21579;-72
2021/06/27 05:53:55;;;;;;;11.80;10.55;;;;;;;23.00;58.59;100828.12;1665851;86;20990;-72
2021/06/27 05:56:21;;;;;;;15.23;10.63;;;;;;;23.17;58.21;100838.02;1665736;86;21479;-71
2021/06/27 05:58:47;;;;;;;13.80;10.43;;;;;;;23.29;57.77;100841.50;1665831;86;21433;-72
2021/06/27 06:01:16;;;;;;;13.03;9.38;;;;;;;23.09;57.49;100838.38;1665854;86;20926;-71
2021/06/27 06:03:42;;;;;;;11.03;9.30;;;;;;;22.97;57.18;100838.97;1664493;86;21719;-71
2021/06/27 06:06:10;;;;;;;11.75;9.80;;;;;;;22.35;57.00;100838.64;1665864;86;21450;-72
2021/06/27 06:08:43;;;;;;;10.48;9.23;;;;;;;22.04;57.08;100837.61;1629404;86;21017;-71
2021/06/27 06:11:10;;;;;;;10.13;9.13;;;;;;;22.23;57.20;100841.91;1634301;87;21044;-71
2021/06/27 06:13:37;;;;;;;10.43;8.83;;;;;;;22.65;57.10;100836.33;1623257;87;21106;-72
2021/06/27 06:16:04;;;;;;;13.50;10.18;;;;;;;22.71;56.91;100831.31;1628918;87;22493;-72
2021/06/27 06:18:30;;;;;;;11.40;8.45;;;;;;;22.53;56.84;100831.42;1630949;87;20970;-72
2021/06/27 06:20:56;;;;;;;9.63;7.83;;;;;;;22.76;56.85;100821.92;1622955;88;21062;-72
2021/06/27 06:23:22;;;;;;;8.58;7.67;;;;;;;22.97;56.64;100832.16;1623236;87;21057;-72
2021/06/27 06:25:48;;;;;;;9.00;7.30;;;;;;;23.34;56.50;100836.17;1623098;87;21033;-72
2021/06/27 06:28:14;;;;;;;11.55;7.28;;;;;;;23.47;56.20;100835.62;1636165;87;21877;-71
2021/06/27 06:30:40;;;;;;;10.08;7.62;;;;;;;23.49;56.06;100840.28;1647758;87;21002;-72
2021/06/27 06:33:10;;;;;;;7.58;6.75;;;;;;;23.40;55.85;100837.91;1649956;87;21065;-72
2021/06/27 06:35:42;;;;;;;10.53;6.95;;;;;;;23.44;55.58;100837.45;1649836;87;20982;-72
2021/06/27 06:38:09;;;;;;;7.78;6.10;;;;;;;23.57;55.41;100837.17;1649683;87;21041;-72
2021/06/27 06:40:37;;;;;;;6.67;5.85;;;;;;;23.65;54.91;100836.75;1649724;87;22443;-72
2021/06/27 06:43:04;;;;;;;7.60;6.08;;;;;;;23.71;54.89;100838.52;1649527;87;21044;-72
2021/06/27 06:45:30;;;;;;;6.67;5.70;;;;;;;23.64;54.54;100833.77;1649663;87;21088;-72
2021/06/27 06:47:56;;;;;;;6.05;4.85;;;;;;;23.77;54.50;100829.36;1633193;87;21013;-71
2021/06/27 06:50:23;;;;;;;9.65;5.60;;;;;;;23.96;54.22;100834.84;1646528;87;21025;-71
2021/06/27 06:52:49;;;;;;;7.78;5.60;;;;;;;24.07;53.88;100831.75;1645814;87;21538;-72
2021/06/27 06:55:15;;;;;;;5.40;4.90;;;;;;;24.17;53.47;100828.69;1622873;88;21056;-71
2021/06/27 06:57:41;;;;;;;7.55;5.22;;;;;;;24.14;53.24;100822.38;1629447;87;21106;-71
2021/06/27 07:00:09;;;;;;;5.65;5.15;;;;;;;24.24;53.00;100830.70;1630529;87;21029;-71
2021/06/27 07:02:36;;;;;;;11.93;4.58;;;;;;;24.38;52.85;100825.20;1627607;87;21064;-71
2021/06/27 07:05:04;;;;;;;5.92;4.00;;;;;;;24.54;52.58;100830.88;1633792;87;21804;-71
2021/06/27 07:07:30;;;;;;;4.12;3.72;;;;;;;24.58;52.20;100822.48;1621768;88;21040;-71
2021/06/27 07:09:56;;;;;;;4.75;3.80;;;;;;;24.69;51.94;100818.83;1638042;85;21095;-71
2021/06/27 07:12:22;;;;;;;5.62;3.70;;;;;;;24.77;51.58;100818.39;1633971;87;21013;-71
2021/06/27 07:14:48;;;;;;;4.72;2.75;;;;;;;24.55;51.11;100816.17;1631534;87;21637;-71
2021/06/27 07:17:14;;;;;;;6.47;2.95;;;;;;;24.56;50.75;100817.83;1627215;87;23202;-71
2021/06/27 07:19:40;;;;;;;4.22;3.12;;;;;;;24.51;50.35;100819.11;1642720;87;21533;-71
2021/06/27 07:22:06;;;;;;;7.28;3.17;;;;;;;24.76;50.09;100822.19;1647829;87;21390;-71
2021/06/27 07:24:32;;;;;;;5.37;3.12;;;;;;;24.78;49.63;100826.31;1647685;87;20977;-71
2021/06/27 07:26:58;;;;;;;2.42;2.22;;;;;;;24.82;49.47;100822.53;1633073;87;21070;-71
2021/06/27 07:29:24;;;;;;;7.58;3.37;;;;;;;24.93;49.26;100825.72;1619745;87;21919;-71
2021/06/27 07:31:53;;;;;;;6.72;2.65;;;;;;;24.83;48.70;100825.59;1620231;87;21126;-70
2021/06/27 07:34:18;;;;;;;2.90;2.50;;;;;;;24.81;48.73;100824.97;1620508;87;21525;-71
2021/06/27 07:36:44;;;;;;;3.65;2.72;;;;;;;24.97;48.53;100822.77;1622491;87;21482;-71
2021/06/27 07:39:10;;;;;;;2.62;2.15;;;;;;;25.03;48.18;100819.02;1622130;87;20917;-71
2021/06/27 07:41:36;;;;;;;4.75;2.58;;;;;;;25.01;47.85;100821.19;1623136;87;21953;-70
2021/06/27 07:44:03;;;;;;;4.70;2.40;;;;;;;25.21;47.65;100820.05;1621524;87;21020;-71
2021/06/27 07:46:29;;;;;;;3.77;2.50;;;;;;;25.12;47.26;100823.50;1621870;87;21439;-71
2021/06/27 07:48:55;;;;;;;6.78;1.95;;;;;;;25.13;47.10;100824.59;1652044;86;21127;-71
2021/06/27 07:51:21;;;;;;;4.85;2.30;;;;;;;25.25;46.87;100826.66;1637509;86;21496;-71
2021/06/27 07:53:47;;;;;;;2.98;2.55;;;;;;;25.28;46.41;100828.05;1631369;87;22732;-71
2021/06/27 07:56:13;;;;;;;5.53;2.77;;;;;;;25.22;46.21;100830.44;1631523;86;20940;-71
2021/06/27 07:58:39;;;;;;;4.42;2.47;;;;;;;25.28;46.05;100831.60;1631383;86;21063;-71
2021/06/27 08:01:05;;;;;;;3.15;2.67;;;;;;;25.37;45.88;100825.69;1631213;87;21079;-71
2021/06/27 08:03:31;;;;;;;4.20;3.00;;;;;;;25.54;45.71;100825.08;1634187;86;21028;-71
2021/06/27 08:05:57;;;;;;;6.42;3.30;;;;;;;25.65;45.31;100828.20;1628503;86;21794;-71
2021/06/27 08:08:23;;;;;;;4.25;2.67;;;;;;;25.73;45.14;100823.61;1631171;87;20991;-69
2021/06/27 08:10:49;;;;;;;5.28;3.20;;;;;;;25.90;44.96;100831.67;1647159;85;20972;-69
2021/06/27 08:13:15;;;;;;;6.70;4.53;;;;;;;26.11;44.90;100829.39;1662394;85;21039;-69
2021/06/27 08:15:41;;;;;;;4.58;2.85;;;;;;;26.13;45.01;100823.96;1662811;85;21079;-69
2021/06/27 08:18:07;;;;;;;3.90;2.67;;;;;;;26.17;44.73;100821.02;1661648;85;21932;-69
2021/06/27 08:20:33;;;;;;;3.75;3.12;;;;;;;26.23;44.54;100823.23;1662300;86;21008;-69
2021/06/27 08:22:59;;;;;;;5.12;2.52;;;;;;;26.26;44.37;100823.53;1660438;85;21012;-69
2021/06/27 08:25:25;;;;;;;2.45;2.08;;;;;;;26.35;44.16;100824.42;1659885;85;21047;-69
2021/06/27 08:27:52;;;;;;;2.70;2.20;;;;;;;26.41;43.90;100824.19;1659007;85;21130;-69
2021/06/27 08:30:18;;;;;;;2.55;1.95;;;;;;;26.44;43.81;100820.09;1660484;86;21899;-70
2021/06/27 08:32:45;;;;;;;3.22;2.35;;;;;;;26.47;43.58;100818.19;1658997;85;21067;-70
2021/06/27 08:35:17;;;;;;;2.33;2.00;;;;;;;26.56;43.48;100823.45;1661779;85;21476;-69
2021/06/27 08:37:43;;;;;;;3.47;2.10;;;;;;;26.40;43.08;100810.22;1662223;85;21031;-67
2021/06/27 08:40:11;;;;;;;4.42;2.25;;;;;;;26.20;42.99;100821.86;1660912;85;21035;-68
2021/06/27 08:42:37;;;;;;;4.20;2.30;;;;;;;26.29;43.05;100816.70;1662103;85;22526;-67
2021/06/27 08:45:06;;;;;;;4.55;2.62;;;;;;;26.33;42.94;100817.30;1660309;86;21069;-67
2021/06/27 08:47:35;;;;;;;7.03;2.50;;;;;;;26.16;42.93;100815.23;1657952;85;21068;-67
2021/06/27 08:50:01;;;;;;;3.60;2.77;;;;;;;26.10;43.05;100817.66;1660808;85;21103;-67
2021/06/27 08:52:27;;;;;;;6.25;3.00;;;;;;;26.20;43.02;100819.13;1661204;85;21488;-67
2021/06/27 08:54:53;;;;;;;2.83;2.62;;;;;;;26.28;42.92;100817.81;1660702;85;22566;-67
2021/06/27 08:57:19;;;;;;;2.90;2.60;;;;;;;26.33;42.99;100814.56;1662493;85;21102;-67
2021/06/27 08:59:45;;;;;;;2.62;2.42;;;;;;;26.51;42.98;100819.31;1660261;85;21028;-67
2021/06/27 09:02:11;;;;;;;6.65;2.95;;;;;;;26.75;42.83;100820.53;1663000;85;21115;-67
2021/06/27 09:04:41;;;;;;;3.00;2.10;;;;;;;26.88;42.58;100821.47;1659985;84;21066;-67
2021/06/27 09:07:38;;;;;;;3.87;2.58;;;;;;;26.80;42.22;100815.10;1661136;86;22525;-67
2021/06/27 09:10:21;;;;;;;4.10;2.70;;;;;;;26.68;41.92;100815.84;1660627;84;21020;-67
2021/06/27 09:12:58;;;;;;;6.10;2.62;;;;;;;26.56;41.77;100802.94;1660752;85;21059;-67
2021/06/27 09:15:45;;;;;;;4.53;3.05;;;;;;;26.40;41.85;100808.02;1661418;85;21126;-67
2021/06/27 09:18:19;;;;;;;2.62;2.40;;;;;;;26.28;41.70;100806.30;1660568;85;21060;-67
2021/06/27 09:20:48;;;;;;;3.00;2.20;;;;;;;26.33;41.77;100801.42;1633950;86;21838;-67
2021/06/27 09:23:16;;;;;;;5.72;2.70;;;;;;;26.40;41.45;100806.66;1666656;85;21107;-67
2021/06/27 09:25:43;;;;;;;4.17;2.52;;;;;;;26.26;41.20;100805.76;1663443;84;21020;-67
2021/06/27 09:28:15;;;;;;;3.05;2.70;;;;;;;26.17;41.04;100800.52;1659584;85;21031;-67
2021/06/27 09:30:50;;;;;;;3.77;2.90;;;;;;;25.98;41.06;100792.40;1632260;87;21090;-67
2021/06/27 09:33:24;;;;;;;2.85;2.58;;;;;;;26.12;41.23;100792.23;1658410;85;21853;-67
2021/06/27 09:36:01;;;;;;;2.50;2.30;;;;;;;26.28;41.48;100785.80;1660292;85;20993;-67
2021/06/27 09:38:49;;;;;;;3.87;2.60;;;;;;;26.51;41.46;100782.37;1660065;85;21515;-67
2021/06/27 09:41:30;;;;;;;4.28;2.22;;;;;;;26.46;41.11;100779.63;1633361;86;20991;-67
2021/06/27 09:44:02;;;;;;;4.75;2.72;;;;;;;26.26;41.19;100778.95;1634320;87;21037;-67
2021/06/27 09:46:43;;;;;;;3.52;2.35;;;;;;;26.04;41.13;100783.14;1630955;87;21879;-67
2021/06/27 09:49:29;;;;;;;2.87;2.50;;;;;;;25.97;41.02;100781.17;1633298;86;20931;-67
2021/06/27 09:51:58;;;;;;;3.05;2.67;;;;;;;25.95;41.09;100773.79;1666728;85;21079;-67
2021/06/27 09:54:26;;;;;;;4.70;2.60;;;;;;;26.13;41.20;100770.64;1660653;85;21500;-67
2021/06/27 09:56:52;;;;;;;2.70;2.50;;;;;;;26.25;41.05;100768.55;1664221;84;21417;-67
2021/06/27 09:59:21;;;;;;;3.40;2.90;;;;;;;26.28;40.86;100759.81;1662236;84;21994;-67
2021/06/27 10:01:47;;;;;;;2.77;2.58;;;;;;;26.35;40.68;100758.78;1665241;85;21055;-67
2021/06/27 10:04:16;;;;;;;3.20;2.90;;;;;;;26.37;40.60;100759.32;1661005;85;21046;-67
2021/06/27 10:06:51;;;;;;;4.45;2.67;;;;;;;26.41;40.55;100764.55;1664124;85;20996;-67
2021/06/27 10:09:22;;;;;;;4.83;2.85;;;;;;;26.32;40.35;100758.20;1658402;86;21445;-67
2021/06/27 10:12:11;;;;;;;7.00;2.77;;;;;;;26.22;40.58;100762.25;1631215;87;21907;-67
2021/06/27 10:14:50;;;;;;;4.47;2.62;;;;;;;26.27;40.35;100761.46;1661696;85;27309;-67
2021/06/27 10:17:17;;;;;;;4.72;2.83;;;;;;;26.23;40.33;100752.14;1647295;86;21055;-67
2021/06/27 10:19:44;;;;;;;2.95;2.65;;;;;;;26.22;40.44;100756.78;1641742;86;21096;-67
2021/06/27 10:22:10;;;;;;;2.70;2.50;;;;;;;26.29;40.28;100753.27;1651932;85;21009;-67
2021/06/27 10:24:37;;;;;;;3.15;2.70;;;;;;;26.22;40.41;100751.30;1651892;85;22008;-67
2021/06/27 10:27:05;;;;;;;2.60;2.40;;;;;;;26.20;40.33;100753.50;1652341;85;21110;-67
2021/06/27 10:29:31;;;;;;;3.37;2.87;;;;;;;25.91;40.07;100764.46;1652744;85;21052;-66
2021/06/27 10:31:57;;;;;;;5.53;2.52;;;;;;;25.85;40.35;100746.39;1653067;85;20993;-66
2021/06/27 10:34:23;;;;;;;3.30;2.52;;;;;;;25.83;40.19;100759.47;1656215;85;21083;-66
2021/06/27 10:36:54;;;;;;;2.90;2.70;;;;;;;25.56;40.30;100754.61;1676704;84;21734;-67
2021/06/27 10:39:20;;;;;;;3.52;2.60;;;;;;;25.46;40.54;100753.13;1699682;84;21560;-67
2021/06/27 10:41:59;;;;;;;3.42;2.40;;;;;;;25.30;40.56;100748.87;1665690;86;21480;-67
2021/06/27 10:44:33;;;;;;;3.08;2.52;;;;;;;25.27;40.67;100745.83;1679285;85;21343;-67
2021/06/27 10:46:59;;;;;;;3.05;2.37;;;;;;;25.33;40.68;100755.74;1672875;85;21053;-67
2021/06/27 10:49:37;;;;;;;3.90;2.62;;;;;;;25.15;40.57;100746.01;1679650;85;21902;-67
2021/06/27 10:52:09;;;;;;;4.55;2.70;;;;;;;25.33;40.78;100746.98;1679271;85;21029;-67
2021/06/27 10:54:43;;;;;;;4.42;2.80;;;;;;;25.77;40.71;100741.39;1678368;85;20967;-67
2021/06/27 10:57:10;;;;;;;4.58;2.67;;;;;;;25.70;40.54;100738.06;1651306;86;21390;-67
2021/06/27 10:59:47;;;;;;;8.03;2.87;;;;;;;25.88;40.78;100738.20;1651499;86;21029;-67
2021/06/27 11:02:27;;;;;;;7.75;2.90;;;;;;;25.64;40.70;100740.48;1651395;86;22687;-67
2021/06/27 11:04:54;;;;;;;6.55;2.95;;;;;;;25.78;40.90;100741.15;1670358;85;21083;-67
2021/06/27 11:07:41;;;;;;;6.05;2.70;;;;;;;25.82;40.76;100738.72;1641741;85;21043;-68
2021/06/27 11:10:25;;;;;;;2.67;2.37;;;;;;;25.63;40.61;100741.55;1676762;84;21053;-67
2021/06/27 11:13:11;;;;;;;3.17;2.70;;;;;;;25.39;40.68;100739.69;1692366;84;21009;-67
2021/06/27 11:15:51;;;;;;;3.83;2.80;;;;;;;25.29;40.88;100736.33;1694565;84;21919;-67
2021/06/27 11:18:36;;;;;;;4.53;2.80;;;;;;;25.56;40.94;100734.95;1672393;84;21031;-67
2021/06/27 11:21:07;;;;;;;2.58;2.37;;;;;;;25.97;40.83;100736.07;1682427;84;21076;-67